createdAt,value
2022-08-08T00:00:52.731Z,100040.63
2022-08-08T00:02:45.226Z,100047.31
2022-08-08T00:04:59.424Z,100050.25
2022-08-08T00:07:39.495Z,100017.06
2022-08-08T00:10:12.307Z,100036.84
2022-08-08T00:12:24.622Z,100047.44
2022-08-08T00:14:59.779Z,100048.72
2022-08-08T00:17:25.355Z,100042.31
2022-08-08T00:19:46.628Z,100058.38
2022-08-08T00:22:00.855Z,100036.63
2022-08-08T00:24:29.884Z,100059.72
2022-08-08T00:26:37.440Z,100054.25
2022-08-08T00:28:43.075Z,100033.03
2022-08-08T00:31:00.380Z,100047.75
2022-08-08T00:33:24.156Z,100057.66
2022-08-08T00:35:28.631Z,100060.66
2022-08-08T00:37:47.643Z,100058.78
2022-08-08T00:41:07.956Z,100053.66
2022-08-08T00:43:22.495Z,100040.31
2022-08-08T00:45:40.577Z,100064.63
2022-08-08T00:48:29.340Z,100066.72
2022-08-08T00:50:53.344Z,100066.84
2022-08-08T00:53:15.793Z,100087.91
2022-08-08T00:55:36.282Z,100074.19
2022-08-08T00:58:12.466Z,100043.63
2022-08-08T01:00:22.180Z,100045.06
2022-08-08T01:03:59.822Z,100057.53
2022-08-08T01:05:58.774Z,100049.75
2022-08-08T01:07:55.325Z,100047.16
2022-08-08T01:10:23.555Z,100040.81
2022-08-08T01:12:43.590Z,100037.03
2022-08-08T01:15:37.346Z,100069.81
2022-08-08T01:18:25.033Z,100050.59
2022-08-08T01:20:48.338Z,100050.50
2022-08-08T01:23:55.041Z,100065.63
2022-08-08T01:26:02.247Z,100060.25
2022-08-08T01:28:43.661Z,100044.50
2022-08-08T01:32:16.087Z,100050.72
2022-08-08T01:34:51.314Z,100060.72
2022-08-08T01:37:13.788Z,100057.53
2022-08-08T01:39:42.206Z,100079.03
2022-08-08T01:42:09.456Z,100051.69
2022-08-08T01:44:43.140Z,100060.13
2022-08-08T01:48:16.658Z,100067.25
2022-08-08T01:49:48.846Z,100039.81
2022-08-08T01:53:55.725Z,100065.22
2022-08-08T01:56:26.018Z,100032.84
2022-08-08T01:58:10.868Z,100062.69
2022-08-08T02:00:20.225Z,100057.78
2022-08-08T02:02:34.668Z,100042.97
2022-08-08T02:05:05.944Z,100042.13
2022-08-08T02:07:22.527Z,100040.72
2022-08-08T02:10:02.720Z,100032.00
2022-08-08T02:12:13.504Z,100029.53
2022-08-08T02:14:49.956Z,100033.41
2022-08-08T02:17:25.728Z,100013.81
2022-08-08T02:20:07.534Z,100042.09
2022-08-08T02:22:54.957Z,100033.63
2022-08-08T02:25:23.771Z,100060.47
2022-08-08T02:27:56.374Z,100033.28
2022-08-08T02:30:20.752Z,100059.88
2022-08-08T02:32:57.194Z,100047.00
2022-08-08T02:35:20.458Z,100049.44
2022-08-08T02:38:02.953Z,100033.28
2022-08-08T02:40:40.143Z,100014.56
2022-08-08T02:44:37.206Z,100022.81
2022-08-08T02:45:54.336Z,100020.53
2022-08-08T02:48:25.835Z,100041.84
2022-08-08T02:51:07.105Z,100036.38
2022-08-08T02:53:25.592Z,100037.03
2022-08-08T02:55:46.064Z,100031.84
2022-08-08T02:57:52.269Z,100044.22
2022-08-08T03:00:31.162Z,100019.19
2022-08-08T03:03:08.167Z,100045.06
2022-08-08T03:05:32.830Z,100027.69
2022-08-08T03:08:27.304Z,100053.72
2022-08-08T03:10:36.278Z,100032.94
2022-08-08T03:13:34.075Z,100036.78
2022-08-08T03:15:56.635Z,100035.59
2022-08-08T03:18:05.019Z,100013.06
2022-08-08T03:20:11.018Z,100028.53
2022-08-08T03:22:37.605Z,100013.75
2022-08-08T03:24:34.153Z,100021.66
2022-08-08T03:26:44.140Z,100028.00
2022-08-08T03:28:53.609Z,100038.50
2022-08-08T03:31:22.261Z,100041.41
2022-08-08T03:33:56.085Z,100016.69
2022-08-08T03:35:40.881Z,100030.19
2022-08-08T03:37:59.363Z,100028.97
2022-08-08T03:40:10.930Z,100072.88
2022-08-08T03:42:30.986Z,100066.56
2022-08-08T03:44:34.619Z,100038.22
2022-08-08T03:46:49.554Z,100013.91
2022-08-08T03:49:56.428Z,100016.34
2022-08-08T03:51:40.312Z,100071.69
2022-08-08T03:53:47.319Z,100048.50
2022-08-08T03:55:57.550Z,100086.22
2022-08-08T03:58:31.948Z,100079.81
2022-08-08T04:00:25.810Z,100054.00
2022-08-08T04:02:36.653Z,100026.84
2022-08-08T04:04:49.677Z,100058.44
2022-08-08T04:07:01.270Z,100057.22
2022-08-08T04:09:11.493Z,100016.06
2022-08-08T04:11:17.277Z,100041.66
2022-08-08T04:13:22.445Z,100038.44
2022-08-08T04:15:38.458Z,100032.47
2022-08-08T04:17:58.090Z,100076.03
2022-08-08T04:20:02.137Z,100048.41
2022-08-08T04:22:04.685Z,100068.81
2022-08-08T04:24:19.269Z,100084.44
2022-08-08T04:26:35.564Z,100086.25
2022-08-08T04:28:50.164Z,100037.94
2022-08-08T04:30:57.469Z,100060.63
2022-08-08T04:32:59.444Z,100097.09
2022-08-08T04:35:01.204Z,100063.25
2022-08-08T04:37:03.934Z,100091.06
2022-08-08T04:39:47.982Z,100083.75
2022-08-08T04:41:27.475Z,100111.03
2022-08-08T04:43:46.151Z,100093.56
2022-08-08T04:45:51.538Z,100115.88
2022-08-08T04:47:54.047Z,100097.44
2022-08-08T04:50:00.715Z,100065.34
2022-08-08T04:52:04.184Z,100076.94
2022-08-08T04:54:39.351Z,100067.59
2022-08-08T04:56:27.526Z,100113.22
2022-08-08T04:58:30.296Z,100083.44
2022-08-08T05:00:31.930Z,100099.72
2022-08-08T05:02:33.877Z,100131.16
2022-08-08T05:04:35.817Z,100131.56
2022-08-08T05:06:39.112Z,100119.94
2022-08-08T05:08:44.433Z,100102.59
2022-08-08T05:10:46.024Z,100133.00
2022-08-08T05:13:00.340Z,100115.19
2022-08-08T05:15:05.215Z,100166.22
2022-08-08T05:17:10.647Z,100133.25
2022-08-08T05:20:12.036Z,100133.22
2022-08-08T05:21:43.650Z,100126.69
2022-08-08T05:24:04.100Z,100126.00
2022-08-08T05:26:06.262Z,100134.84
2022-08-08T05:28:08.070Z,100151.44
2022-08-08T05:30:13.486Z,100144.75
2022-08-08T05:32:15.278Z,100115.63
2022-08-08T05:34:41.520Z,100118.59
2022-08-08T05:36:44.861Z,100128.81
2022-08-08T05:38:48.846Z,100121.31
2022-08-08T05:40:58.113Z,100181.19
2022-08-08T05:43:38.100Z,100130.88
2022-08-08T05:45:41.381Z,100184.78
2022-08-08T05:47:59.918Z,100172.50
2022-08-08T05:50:05.852Z,100141.53
2022-08-08T05:52:09.712Z,100189.78
2022-08-08T05:54:27.653Z,100178.31
2022-08-08T05:56:38.699Z,100186.50
2022-08-08T05:58:57.566Z,100202.84
2022-08-08T06:01:07.038Z,100166.72
2022-08-08T06:03:22.860Z,100166.28
2022-08-08T06:05:34.574Z,100233.06
2022-08-08T06:07:43.835Z,100181.97
2022-08-08T06:10:01.000Z,100181.84
2022-08-08T06:12:04.677Z,100192.06
2022-08-08T06:14:07.269Z,100210.97
2022-08-08T06:16:14.890Z,100227.94
2022-08-08T06:18:20.807Z,100179.28
2022-08-08T06:20:25.990Z,100184.75
2022-08-08T06:22:35.378Z,100200.44
2022-08-08T06:24:37.292Z,100223.94
2022-08-08T06:26:52.397Z,100178.63
2022-08-08T06:29:03.273Z,100190.06
2022-08-08T06:31:32.278Z,100209.09
2022-08-08T06:34:26.728Z,100263.03
2022-08-08T06:36:53.515Z,100182.34
2022-08-08T06:38:56.105Z,100239.34
2022-08-08T06:41:06.324Z,100205.88
2022-08-08T06:43:10.767Z,100207.03
2022-08-08T06:45:13.582Z,100226.72
2022-08-08T06:47:22.372Z,100202.97
2022-08-08T06:49:56.811Z,100210.69
2022-08-08T06:51:52.628Z,100255.00
2022-08-08T06:54:00.930Z,100253.03
2022-08-08T06:56:03.325Z,100215.69
2022-08-08T06:58:05.197Z,100238.91
2022-08-08T07:00:12.511Z,100227.13
2022-08-08T07:02:29.187Z,100251.38
2022-08-08T07:04:49.806Z,100248.28
2022-08-08T07:07:00.753Z,100260.78
2022-08-08T07:09:20.936Z,100291.72
2022-08-08T07:11:28.445Z,100261.75
2022-08-08T07:14:00.833Z,100247.25
2022-08-08T07:16:16.338Z,100253.78
2022-08-08T07:18:36.697Z,100275.19
2022-08-08T07:20:50.861Z,100256.84
2022-08-08T07:23:10.493Z,100263.03
2022-08-08T07:25:14.620Z,100293.38
2022-08-08T07:27:27.795Z,100263.06
2022-08-08T07:30:00.115Z,100287.72
2022-08-08T07:31:59.876Z,100281.00
2022-08-08T07:34:09.104Z,100279.56
2022-08-08T07:36:12.032Z,100301.47
2022-08-08T07:38:20.430Z,100289.16
2022-08-08T07:40:28.972Z,100293.31
2022-08-08T07:42:34.349Z,100274.13
2022-08-08T07:44:40.356Z,100287.13
2022-08-08T07:46:46.009Z,100285.16
2022-08-08T07:48:47.608Z,100289.88
2022-08-08T07:50:53.938Z,100289.41
2022-08-08T07:52:59.560Z,100306.19
2022-08-08T07:55:01.137Z,100288.13
2022-08-08T07:57:24.589Z,100273.28
2022-08-08T07:59:37.602Z,100304.06
2022-08-08T08:02:35.952Z,100288.06
2022-08-08T08:04:16.146Z,100302.41
2022-08-08T08:06:20.041Z,100305.34
2022-08-08T08:09:05.091Z,100313.44
2022-08-08T08:11:21.079Z,100299.06
2022-08-08T08:13:42.628Z,100318.69
2022-08-08T08:16:06.932Z,100320.81
2022-08-08T08:18:14.131Z,100339.56
2022-08-08T08:20:18.307Z,100349.84
2022-08-08T08:22:31.296Z,100339.59
2022-08-08T08:24:35.251Z,100313.88
2022-08-08T08:26:37.148Z,100333.03
2022-08-08T08:28:41.119Z,100319.22
2022-08-08T08:30:42.803Z,100335.75
2022-08-08T08:32:49.526Z,100303.19
2022-08-08T08:34:53.602Z,100339.59
2022-08-08T08:36:55.403Z,100313.16
2022-08-08T08:39:17.179Z,100325.59
2022-08-08T08:41:23.764Z,100321.25
2022-08-08T08:43:26.700Z,100306.34
2022-08-08T08:45:31.943Z,100334.00
2022-08-08T08:47:43.803Z,100300.56
2022-08-08T08:49:46.592Z,100306.97
2022-08-08T08:51:51.031Z,100323.16
2022-08-08T08:54:00.761Z,100326.13
2022-08-08T08:56:04.026Z,100324.25
2022-08-08T08:58:19.242Z,100341.63
2022-08-08T09:00:21.095Z,100314.44
2022-08-08T09:02:26.542Z,100326.75
2022-08-08T09:04:42.670Z,100317.31
2022-08-08T09:06:50.338Z,100335.03
2022-08-08T09:09:35.325Z,100314.31
2022-08-08T09:11:46.955Z,100318.97
2022-08-08T09:13:53.818Z,100339.91
2022-08-08T09:16:04.082Z,100328.16
2022-08-08T09:18:07.360Z,100313.88
2022-08-08T09:21:58.258Z,100338.88
2022-08-08T09:22:35.178Z,100341.16
2022-08-08T09:24:38.480Z,100318.50
2022-08-08T09:26:54.067Z,100320.00
2022-08-08T09:29:04.147Z,100336.72
2022-08-08T09:31:16.329Z,100337.25
2022-08-08T09:34:14.615Z,100338.13
2022-08-08T09:35:49.242Z,100319.59
2022-08-08T09:38:02.169Z,100347.44
2022-08-08T09:40:10.807Z,100325.34
2022-08-08T09:42:21.620Z,100319.41
2022-08-08T09:44:35.560Z,100320.56
2022-08-08T09:46:45.474Z,100328.88
2022-08-08T09:49:18.201Z,100313.78
2022-08-08T09:51:29.900Z,100315.91
2022-08-08T09:53:56.490Z,100285.22
2022-08-08T09:56:21.659Z,100321.16
2022-08-08T09:58:40.511Z,100331.16
2022-08-08T10:00:50.062Z,100322.66
2022-08-08T10:02:57.774Z,100324.66
2022-08-08T10:05:14.925Z,100313.47
2022-08-08T10:07:17.637Z,100318.97
2022-08-08T10:09:30.603Z,100324.19
2022-08-08T10:12:27.442Z,100333.28
2022-08-08T10:14:06.023Z,100333.53
2022-08-08T10:16:07.913Z,100315.22
2022-08-08T10:18:17.169Z,100309.94
2022-08-08T10:20:27.876Z,100320.47
2022-08-08T10:22:54.717Z,100301.16
2022-08-08T10:25:04.556Z,100298.19
2022-08-08T10:27:06.950Z,100308.38
2022-08-08T10:29:22.758Z,100319.94
2022-08-08T10:31:49.607Z,100314.25
2022-08-08T10:34:18.869Z,100306.16
2022-08-08T10:36:22.489Z,100307.38
2022-08-08T10:38:27.750Z,100305.63
2022-08-08T10:40:32.578Z,100286.00
2022-08-08T10:42:37.516Z,100296.94
2022-08-08T10:44:41.772Z,100296.44
2022-08-08T10:46:43.591Z,100288.94
2022-08-08T10:48:57.530Z,100307.31
2022-08-08T10:51:14.890Z,100305.41
2022-08-08T10:53:17.030Z,100314.19
2022-08-08T10:55:39.103Z,100315.13
2022-08-08T10:57:50.280Z,100296.63
2022-08-08T10:59:59.612Z,100297.19
2022-08-08T11:03:36.560Z,100274.72
2022-08-08T11:06:00.327Z,100300.72
2022-08-08T11:08:38.498Z,100289.75
2022-08-08T11:10:29.560Z,100281.03
2022-08-08T11:12:38.212Z,100277.09
2022-08-08T11:14:50.426Z,100292.97
2022-08-08T11:16:53.830Z,100270.84
2022-08-08T11:18:57.815Z,100266.69
2022-08-08T11:21:08.870Z,100265.09
2022-08-08T11:23:12.156Z,100275.44
2022-08-08T11:25:14.873Z,100264.56
2022-08-08T11:27:23.178Z,100264.03
2022-08-08T11:29:29.488Z,100262.41
2022-08-08T11:31:51.503Z,100251.13
2022-08-08T11:34:03.112Z,100263.38
2022-08-08T11:36:05.606Z,100274.59
2022-08-08T11:38:35.701Z,100263.75
2022-08-08T11:40:31.983Z,100266.72
2022-08-08T11:42:34.710Z,100257.94
2022-08-08T11:44:38.145Z,100261.75
2022-08-08T11:46:42.652Z,100279.91
2022-08-08T11:48:47.203Z,100247.53
2022-08-08T11:50:52.566Z,100268.28
2022-08-08T11:52:56.249Z,100261.78
2022-08-08T11:55:00.633Z,100250.84
2022-08-08T11:57:35.349Z,100244.59
2022-08-08T12:00:01.739Z,100233.69
2022-08-08T12:02:31.065Z,100240.84
2022-08-08T12:04:28.919Z,100242.03
2022-08-08T12:06:32.011Z,100247.19
2022-08-08T12:08:35.773Z,100223.75
2022-08-08T12:10:47.961Z,100227.81
2022-08-08T12:13:03.822Z,100232.75
2022-08-08T12:15:06.056Z,100238.81
2022-08-08T12:17:11.121Z,100229.22
2022-08-08T12:19:15.405Z,100229.09
2022-08-08T12:21:59.990Z,100218.44
2022-08-08T12:23:59.423Z,100235.03
2022-08-08T12:26:10.000Z,100231.88
2022-08-08T12:28:19.367Z,100225.28
2022-08-08T12:30:31.828Z,100211.03
2022-08-08T12:32:44.632Z,100204.22
2022-08-08T12:35:13.299Z,100205.38
2022-08-08T12:37:22.700Z,100189.38
2022-08-08T12:40:00.782Z,100188.94
2022-08-08T12:42:01.907Z,100191.81
2022-08-08T12:44:08.630Z,100188.63
2022-08-08T12:46:19.073Z,100201.72
2022-08-08T12:48:37.038Z,100202.38
2022-08-08T12:50:42.233Z,100200.28
2022-08-08T12:52:55.789Z,100195.41
2022-08-08T12:55:13.712Z,100185.47
2022-08-08T12:57:23.305Z,100182.28
2022-08-08T12:59:44.725Z,100197.34
2022-08-08T13:01:57.611Z,100205.19
2022-08-08T13:03:59.515Z,100203.28
2022-08-08T13:06:13.908Z,100202.41
2022-08-08T13:08:36.252Z,100220.84
2022-08-08T13:10:55.610Z,100202.66
2022-08-08T13:13:05.882Z,100207.72
2022-08-08T13:15:12.428Z,100200.63
2022-08-08T13:18:09.285Z,100196.06
2022-08-08T13:19:49.690Z,100196.41
2022-08-08T13:21:55.371Z,100188.28
2022-08-08T13:24:07.562Z,100211.56
2022-08-08T13:26:14.705Z,100192.09
2022-08-08T13:28:17.457Z,100197.19
2022-08-08T13:30:26.058Z,100192.94
2022-08-08T13:32:35.232Z,100188.75
2022-08-08T13:34:40.030Z,100204.69
2022-08-08T13:36:41.937Z,100201.25
2022-08-08T13:38:46.245Z,100202.03
2022-08-08T13:40:49.017Z,100199.56
2022-08-08T13:42:53.483Z,100191.66
2022-08-08T13:45:00.318Z,100185.72
2022-08-08T13:47:04.155Z,100192.66
2022-08-08T13:50:34.920Z,100195.91
2022-08-08T13:51:52.568Z,100192.31
2022-08-08T13:54:00.701Z,100192.72
2022-08-08T13:56:11.271Z,100192.22
2022-08-08T13:58:20.419Z,100166.72
2022-08-08T14:00:23.180Z,100174.97
2022-08-08T14:02:31.206Z,100170.59
2022-08-08T14:04:35.393Z,100173.41
2022-08-08T14:06:45.477Z,100178.53
2022-08-08T14:08:48.228Z,100181.75
2022-08-08T14:10:50.142Z,100149.38
2022-08-08T14:12:53.580Z,100154.75
2022-08-08T14:14:55.454Z,100176.16
2022-08-08T14:17:00.470Z,100168.50
2022-08-08T14:19:02.931Z,100168.56
2022-08-08T14:21:15.077Z,100172.50
2022-08-08T14:24:07.452Z,100155.31
2022-08-08T14:25:59.551Z,100159.72
2022-08-08T14:28:10.147Z,100161.75
2022-08-08T14:30:17.856Z,100168.22
2022-08-08T14:32:29.535Z,100172.06
2022-08-08T14:34:32.496Z,100167.53
2022-08-08T14:36:40.640Z,100175.59
2022-08-08T14:38:52.488Z,100171.59
2022-08-08T14:41:53.471Z,100167.50
2022-08-08T14:44:10.372Z,100169.34
2022-08-08T14:46:09.413Z,100175.00
2022-08-08T14:48:11.153Z,100168.03
2022-08-08T14:50:37.624Z,100166.94
2022-08-08T14:53:05.555Z,100171.53
2022-08-08T14:55:07.914Z,100160.94
2022-08-08T14:57:09.541Z,100147.13
2022-08-08T14:59:31.438Z,100146.25
2022-08-08T15:02:25.786Z,100099.84
2022-08-08T15:04:33.408Z,100114.31
2022-08-08T15:06:35.553Z,100139.22
2022-08-08T15:08:39.063Z,100143.28
2022-08-08T15:10:56.505Z,100148.13
2022-08-08T15:12:58.106Z,100143.91
2022-08-08T15:15:00.156Z,100142.28
2022-08-08T15:17:02.952Z,100137.78
2022-08-08T15:19:04.918Z,100128.13
2022-08-08T15:21:08.343Z,100135.13
2022-08-08T15:23:10.480Z,100135.09
2022-08-08T15:25:17.583Z,100124.28
2022-08-08T15:28:04.266Z,100123.09
2022-08-08T15:29:53.652Z,100128.78
2022-08-08T15:32:19.677Z,100140.34
2022-08-08T15:34:31.418Z,100128.72
2022-08-08T15:36:34.051Z,100143.50
2022-08-08T15:38:35.696Z,100129.56
2022-08-08T15:40:44.328Z,100143.06
2022-08-08T15:42:47.431Z,100138.59
2022-08-08T15:44:51.538Z,100139.44
2022-08-08T15:46:56.479Z,100142.84
2022-08-08T15:48:58.785Z,100147.47
2022-08-08T15:51:06.532Z,100140.53
2022-08-08T15:53:08.900Z,100133.28
2022-08-08T15:55:12.526Z,100127.38
2022-08-08T15:57:17.749Z,100129.25
2022-08-08T15:59:20.080Z,100123.50
2022-08-08T16:01:59.720Z,100128.28
2022-08-08T16:04:03.826Z,100130.31
2022-08-08T16:06:05.805Z,100126.19
2022-08-08T16:08:17.856Z,100127.47
2022-08-08T16:13:05.742Z,100107.06
2022-08-08T16:13:09.546Z,100108.03
2022-08-08T16:15:09.019Z,100108.13
2022-08-08T16:17:14.225Z,100110.50
2022-08-08T16:20:00.015Z,100107.16
2022-08-08T16:21:58.352Z,100116.81
2022-08-08T16:24:02.820Z,100115.78
2022-08-08T16:26:17.374Z,100109.00
2022-08-08T16:28:33.992Z,100109.88
2022-08-08T16:30:37.705Z,100105.38
2022-08-08T16:32:42.531Z,100124.25
2022-08-08T16:34:44.158Z,100115.78
2022-08-08T16:36:49.284Z,100117.00
2022-08-08T16:38:53.695Z,100117.72
2022-08-08T16:40:58.203Z,100116.63
2022-08-08T16:43:03.596Z,100098.28
2022-08-08T16:45:11.533Z,100108.84
2022-08-08T16:47:41.426Z,100104.44
2022-08-08T16:49:44.865Z,100107.81
2022-08-08T16:55:05.346Z,100108.16
2022-08-08T16:55:22.957Z,100109.59
2022-08-08T16:56:32.914Z,100109.66
2022-08-08T16:58:37.032Z,100109.03
2022-08-08T17:00:42.942Z,100105.59
2022-08-08T17:02:50.942Z,100103.66
2022-08-08T17:04:53.350Z,100109.09
2022-08-08T17:06:54.994Z,100109.44
2022-08-08T17:08:56.670Z,100116.59
2022-08-08T17:11:10.170Z,100110.84
2022-08-08T17:13:12.834Z,100107.31
2022-08-08T17:15:21.041Z,100107.16
2022-08-08T17:17:41.561Z,100095.47
2022-08-08T17:19:46.773Z,100108.47
2022-08-08T17:21:51.166Z,100116.81
2022-08-08T17:24:01.610Z,100105.66
2022-08-08T17:26:05.075Z,100117.34
2022-08-08T17:28:08.330Z,100097.56
2022-08-08T17:30:23.440Z,100105.03
2022-08-08T17:32:34.303Z,100098.38
2022-08-08T17:35:52.767Z,100098.00
2022-08-08T17:37:19.311Z,100102.34
2022-08-08T17:39:45.815Z,100102.97
2022-08-08T17:41:47.960Z,100106.78
2022-08-08T17:44:00.714Z,100108.34
2022-08-08T17:46:03.766Z,100113.47
2022-08-08T17:48:07.927Z,100118.13
2022-08-08T17:50:16.987Z,100115.66
2022-08-08T17:52:18.962Z,100113.28
2022-08-08T17:54:22.484Z,100126.56
2022-08-08T17:56:27.839Z,100114.19
2022-08-08T17:58:32.189Z,100114.63
2022-08-08T18:00:39.173Z,100113.75
2022-08-08T18:02:52.174Z,100121.31
2022-08-08T18:05:05.451Z,100117.94
2022-08-08T18:08:15.368Z,100125.59
2022-08-08T18:09:38.642Z,100134.91
2022-08-08T18:11:42.946Z,100124.28
2022-08-08T18:13:46.073Z,100125.44
2022-08-08T18:15:48.042Z,100123.94
2022-08-08T18:18:09.697Z,100127.78
2022-08-08T18:20:37.229Z,100124.03
2022-08-08T18:22:50.966Z,100121.63
2022-08-08T18:24:53.141Z,100119.59
2022-08-08T18:26:58.537Z,100125.78
2022-08-08T18:29:00.619Z,100116.84
2022-08-08T18:31:06.901Z,100132.78
2022-08-08T18:33:10.428Z,100138.75
2022-08-08T18:35:21.557Z,100141.13
2022-08-08T18:37:33.596Z,100138.28
2022-08-08T18:39:41.888Z,100138.19
2022-08-08T18:41:51.409Z,100147.78
2022-08-08T18:44:01.628Z,100140.75
2022-08-08T18:46:54.907Z,100142.66
2022-08-08T18:48:27.809Z,100147.63
2022-08-08T18:50:30.089Z,100152.78
2022-08-08T18:52:36.875Z,100151.28
2022-08-08T18:54:38.896Z,100157.00
2022-08-08T18:56:43.261Z,100155.63
2022-08-08T18:58:45.243Z,100152.31
2022-08-08T19:00:50.104Z,100163.28
2022-08-08T19:02:55.246Z,100164.81
2022-08-08T19:04:59.038Z,100167.31
2022-08-08T19:07:00.696Z,100175.56
2022-08-08T19:09:03.132Z,100169.41
2022-08-08T19:11:22.356Z,100186.38
2022-08-08T19:13:25.081Z,100169.06
2022-08-08T19:15:34.028Z,100182.69
2022-08-08T19:17:48.124Z,100190.25
2022-08-08T20:01:25.755Z,100217.97
2022-08-08T20:04:01.865Z,100216.34
2022-08-08T20:06:14.596Z,100223.22
2022-08-08T20:08:28.397Z,100223.94
2022-08-08T20:10:39.697Z,100220.44
2022-08-08T20:12:58.949Z,100217.47
2022-08-08T20:15:14.359Z,100222.03
2022-08-08T20:17:26.794Z,100216.81
2022-08-08T20:19:34.323Z,100221.22
2022-08-08T20:21:41.683Z,100217.63
2022-08-08T20:23:43.387Z,100216.03
2022-08-08T20:25:45.882Z,100229.41
2022-08-08T20:27:49.415Z,100217.28
2022-08-08T20:30:00.829Z,100221.66
2022-08-08T20:32:10.467Z,100218.25
2022-08-08T20:34:30.103Z,100218.88
2022-08-08T20:36:33.928Z,100222.44
2022-08-08T20:38:41.710Z,100224.63
2022-08-08T20:40:50.933Z,100216.53
2022-08-08T20:42:55.774Z,100221.41
2022-08-08T20:44:58.828Z,100227.78
2022-08-08T20:47:00.614Z,100227.59
2022-08-08T20:49:04.757Z,100232.84
2022-08-08T20:51:06.621Z,100230.75
2022-08-08T20:53:16.363Z,100236.88
2022-08-08T20:55:30.238Z,100228.06
2022-08-08T20:57:47.557Z,100228.22
2022-08-08T20:59:52.962Z,100223.56
2022-08-08T21:02:06.117Z,100231.72
2022-08-08T21:04:10.908Z,100224.41
2022-08-08T21:06:15.995Z,100233.72
2022-08-08T21:08:36.330Z,100224.75
2022-08-08T21:10:39.568Z,100219.25
2022-08-08T21:12:44.648Z,100229.75
2022-08-08T21:14:48.981Z,100227.78
2022-08-08T21:16:51.042Z,100225.81
2022-08-08T21:18:55.755Z,100220.25
2022-08-08T21:20:58.455Z,100234.75
2022-08-08T21:23:00.146Z,100232.13
2022-08-08T21:25:04.982Z,100236.16
2022-08-08T21:27:15.242Z,100233.31
2022-08-08T21:30:05.693Z,100235.31
2022-08-08T21:31:59.214Z,100228.47
2022-08-08T21:34:01.177Z,100242.81
2022-08-08T21:36:20.043Z,100226.03
2022-08-08T21:38:22.268Z,100221.91
2022-08-08T21:40:31.406Z,100227.25
2022-08-08T21:42:33.344Z,100226.34
2022-08-08T21:44:35.076Z,100223.25
2022-08-08T21:48:04.363Z,100217.34
2022-08-08T21:48:59.414Z,100218.78
2022-08-08T21:51:10.008Z,100211.38
2022-08-08T21:54:32.947Z,100212.91
2022-08-08T21:56:19.799Z,100210.94
2022-08-08T21:58:05.701Z,100201.97
2022-08-08T22:00:14.176Z,100214.63
2022-08-08T22:02:19.173Z,100211.56
2022-08-08T22:04:21.322Z,100228.94
2022-08-08T22:06:31.612Z,100218.63
2022-08-08T22:08:37.314Z,100222.47
2022-08-08T22:10:43.577Z,100221.75
2022-08-08T22:12:47.102Z,100231.53
2022-08-08T22:14:50.243Z,100226.13
2022-08-08T22:16:54.527Z,100233.13
2022-08-08T22:18:56.170Z,100230.31
2022-08-08T22:21:14.459Z,100232.28
2022-08-08T22:23:18.509Z,100234.97
2022-08-08T22:25:25.788Z,100243.25
2022-08-08T22:27:56.039Z,100234.59
2022-08-08T22:29:58.823Z,100220.78
2022-08-08T22:32:05.355Z,100227.22
2022-08-08T22:34:13.215Z,100223.03
2022-08-08T22:36:17.810Z,100220.25
2022-08-08T22:38:34.105Z,100222.94
2022-08-08T22:40:38.311Z,100221.03
2022-08-08T22:42:40.422Z,100222.34
2022-08-08T22:44:42.504Z,100217.50
2022-08-08T22:46:45.835Z,100224.69
2022-08-08T22:48:50.387Z,100228.44
2022-08-08T22:50:56.244Z,100227.84
2022-08-08T22:54:28.280Z,100225.59
2022-08-08T22:55:22.251Z,100223.09
2022-08-08T22:57:25.629Z,100208.22
2022-08-08T22:59:36.327Z,100215.94
2022-08-08T23:02:03.394Z,100208.16
2022-08-08T23:04:06.157Z,100203.84
2022-08-08T23:06:13.691Z,100197.13
2022-08-08T23:08:18.010Z,100204.28
2022-08-08T23:10:21.837Z,100206.22
2022-08-08T23:12:40.345Z,100194.66
2022-08-08T23:14:56.262Z,100198.59
2022-08-08T23:17:01.597Z,100187.03
2022-08-08T23:19:05.060Z,100196.78
2022-08-08T23:21:10.805Z,100200.53
2022-08-08T23:23:13.920Z,100201.72
2022-08-08T23:25:18.352Z,100199.44
2022-08-08T23:27:39.267Z,100191.16
2022-08-08T23:29:42.800Z,100198.78
2022-08-08T23:31:57.165Z,100197.09
2022-08-08T23:34:17.831Z,100193.69
2022-08-08T23:36:26.135Z,100199.84
2022-08-08T23:38:28.539Z,100197.78
2022-08-08T23:40:30.888Z,100187.69
2022-08-08T23:42:32.971Z,100183.75
2022-08-08T23:44:38.612Z,100178.31
2022-08-08T23:49:02.738Z,100194.47
2022-08-08T23:49:18.428Z,100198.25
2022-08-08T23:51:41.945Z,100190.63
2022-08-08T23:54:05.069Z,100203.84
2022-08-08T23:56:04.527Z,100200.06
2022-08-08T23:58:06.253Z,100208.63
